Impacts TAF Board INFO
FOR SITUATIONAL AWARENESS. NOT TO BE USED FOR FLIGHT PLANNING PURPOSES.
IDs:

KSAN - San Diego Intl Arpt, CA, US

Issued at 1236 UTC 23 Jun 2018
Updated at 1345 UTC 23 Jun 2018
Potential Impact None Slight Moderate High
Time1251Z 23/14Z 23/15Z 23/16Z 23/17Z 23/18Z 23/19Z 23/20Z 23/21Z 23/22Z 23/23Z 24/00Z 24/01Z 24/02Z>>
Type OBS PRVL PRVL PRVL PRVL PRVL PRVL
  [TEMP]  
PRVL
  [TEMP]  
PRVL
  [TEMP]  
PRVL PRVL PRVL PRVL PRVL
VIS 4 5 >6 >6 >6 >6 >6 >6 >6 >6 >6 >6 >6 >6
CIG 7 7 10 10 10 10 15
  [15]  
15
  [15]  
15
  [15]  
15 15 15 15 15
Cover OVC OVC OVC OVC OVC OVC BKN
  [SCT]  
BKN
  [SCT]  
BKN
  [SCT]  
BKN BKN BKN BKN BKN
FltCat IFR IFR MVFR MVFR MVFR MVFR MVFR
  [MVFR]  
MVFR
  [MVFR]  
MVFR
  [MVFR]  
MVFR MVFR MVFR MVFR MVFR
WX -DZ BR -- -- -- -- --
  [--]  
--
  [--]  
--
  [--]  
-- -- -- -- --
WDir 220 VRB 190 190 190 190 210
[210]
210
[210]
210
[210]
210 210 210 210 210
WSpd 7 5 6 6 6 6 9
  [9]  
9
  [9]  
9
  [9]  
9 9 9 9 9
WGst -- -- -- -- -- -- --
  [--]  
--
  [--]  
--
  [--]  
-- -- -- -- --

Raw TAF
KSAN 231236Z 2313/2418 VRB05KT 5SM BR OVC007
  FM231500 19006KT P6SM OVC010
  FM231900 21009KT P6SM BKN015
  TEMPO 2319/2322 SCT015
  FM240300 18006KT P6SM OVC013
  FM241700 19005KT P6SM SCT015


Raw METAR
KSAN 231251Z 22007KT 4SM -DZ OVC007 17/15 A2984 RMK AO2 DZB14 SLP103 CIG 006V008 P0000 T01720150
KSAN 231151Z 21007KT 5SM BR OVC007 17/15 A2983 RMK AO2 SLP102 T01720150 10189 20172 55001
KSAN 231051Z 22005KT 5SM BR OVC008 17/15 A2982 RMK AO2 SLP098 T01720150

METAR Board
Radar Display
Forecast Discussion

FOR SITUATIONAL AWARENESS. NOT TO BE USED FOR FLIGHT PLANNING PURPOSES.